Terminal Aerodrome Forecast
Issued by NWS

Home | Current Version | Previous Version | Text Only | Print | Product List | Glossary On
Versions: 1 2 3 4 5 6 7 8 9 10 11 12 13
000
FTAK31 PAFA 231740
TAFASC
TAF
PASC 231740Z 2318/2418 07015KT P6SM FEW250
     FM240200 07020G25KT P6SM BKN015
     FM240900 07015KT 4SM BR OVC015=

USA.gov is the U.S. government's official web portal to all federal, state and local government web resources and services.